Time;durP1;ratioP1;P1;durP2;ratioP2;P2;SDS_P1;SDS_P2;PMS_P1;PMS_P2;Temp;Humidity;BMP_temperature;BMP_pressure;BME280_temperature;BME280_humidity;BME280_pressure;Samples;Min_cycle;Max_cycle;Signal;HPM_P1;HPM_P2
2022/03/28 00:00:56;;;;;;;3.78;3.33;;;;;;;8.61;61.70;99507.25;4107284;28;20223;-58
2022/03/28 00:02:58;;;;;;;9.30;4.25;;;;;;;8.61;61.70;99501.78;4106768;28;20344;-57
2022/03/28 00:05:01;;;;;;;4.28;3.80;;;;;;;8.61;61.33;99501.78;4106728;28;20438;-57
2022/03/28 00:07:03;;;;;;;4.88;4.38;;;;;;;8.62;61.46;99504.28;4073111;28;20223;-58
2022/03/28 00:09:05;;;;;;;2.53;2.33;;;;;;;8.55;61.16;99497.19;4106532;28;20207;-58
2022/03/28 00:11:07;;;;;;;3.83;2.95;;;;;;;8.45;62.03;99510.41;4108669;28;20718;-57
2022/03/28 00:13:09;;;;;;;2.65;2.45;;;;;;;8.35;62.02;99499.09;4091562;28;20694;-57
2022/03/28 00:15:11;;;;;;;3.13;2.90;;;;;;;8.29;62.74;99497.22;4103713;28;20301;-57
2022/03/28 00:17:13;;;;;;;3.92;3.63;;;;;;;8.20;62.21;99496.59;4088850;28;20223;-58
2022/03/28 00:19:15;;;;;;;2.50;2.30;;;;;;;8.09;62.57;99496.34;4090762;28;20208;-57
2022/03/28 00:21:17;;;;;;;2.78;2.58;;;;;;;8.07;62.74;99498.44;4104179;28;20317;-56
2022/03/28 00:23:20;;;;;;;4.03;3.03;;;;;;;8.02;63.04;99495.53;4106358;28;20215;-57
2022/03/28 00:25:21;;;;;;;3.28;2.95;;;;;;;8.03;63.33;99492.56;4091058;28;20210;-56
2022/03/28 00:27:23;;;;;;;2.60;2.40;;;;;;;8.02;62.94;99490.06;4095637;28;20212;-57
2022/03/28 00:29:25;;;;;;;3.10;2.85;;;;;;;8.01;63.07;99485.69;4107665;28;20223;-57
2022/03/28 00:31:27;;;;;;;2.75;2.30;;;;;;;7.96;62.91;99490.91;4109714;28;20262;-57
2022/03/28 00:33:29;;;;;;;3.38;3.08;;;;;;;7.92;62.54;99476.88;4110212;28;20264;-59
2022/03/28 00:35:31;;;;;;;3.58;2.90;;;;;;;7.92;63.14;99484.19;4075736;29;20275;-58
2022/03/28 00:37:33;;;;;;;3.83;3.53;;;;;;;7.89;63.25;99480.00;4090771;28;20313;-58
2022/03/28 00:39:34;;;;;;;9.15;3.03;;;;;;;7.82;62.62;99478.34;4107073;28;20245;-59
2022/03/28 00:41:36;;;;;;;2.53;2.30;;;;;;;7.82;62.89;99481.06;4090092;28;20242;-57
2022/03/28 00:43:53;;;;;;;3.88;3.53;;;;;;;7.77;62.86;99478.13;4089281;28;20254;-58
2022/03/28 00:45:54;;;;;;;2.42;2.22;;;;;;;7.77;63.12;99468.06;4094272;28;20215;-59
2022/03/28 00:47:56;;;;;;;3.00;2.67;;;;;;;7.74;63.81;99471.19;4106930;28;20787;-58
2022/03/28 00:49:58;;;;;;;3.30;3.08;;;;;;;7.75;63.20;99472.03;4091531;28;20294;-59
2022/03/28 00:52:00;;;;;;;3.30;2.80;;;;;;;7.79;63.27;99470.56;4106939;28;20230;-58
2022/03/28 00:54:02;;;;;;;2.25;2.05;;;;;;;7.76;63.34;99473.72;4092094;28;20219;-58
2022/03/28 00:56:05;;;;;;;5.03;4.05;;;;;;;7.70;62.83;99469.09;4089066;28;20306;-58
2022/03/28 00:58:06;;;;;;;2.35;2.15;;;;;;;7.71;63.20;99468.91;4106371;28;20218;-58
2022/03/28 01:00:12;;;;;;;3.55;3.25;;;;;;;7.68;63.75;99471.19;4088539;28;20242;-58
2022/03/28 01:02:13;;;;;;;2.80;2.60;;;;;;;7.66;63.16;99463.22;4089393;28;20270;-58
2022/03/28 01:04:15;;;;;;;2.65;2.45;;;;;;;7.66;63.39;99463.22;4091200;28;20303;-58
2022/03/28 01:06:17;;;;;;;3.35;3.10;;;;;;;7.70;62.62;99458.19;4112055;28;20249;-58
2022/03/28 01:08:19;;;;;;;3.55;3.25;;;;;;;7.72;63.10;99462.41;4110164;28;20218;-57
2022/03/28 01:10:21;;;;;;;3.28;2.97;;;;;;;7.68;63.06;99449.41;4093064;28;20809;-58
2022/03/28 01:12:25;;;;;;;3.22;2.92;;;;;;;7.63;63.39;99452.72;4109951;28;20336;-57
2022/03/28 01:14:27;;;;;;;2.75;2.45;;;;;;;7.60;63.10;99453.16;4092145;28;20211;-58
2022/03/28 01:16:30;;;;;;;3.10;2.78;;;;;;;7.49;63.37;99456.50;4093757;28;20231;-58
2022/03/28 01:18:32;;;;;;;2.10;1.98;;;;;;;7.43;63.51;99451.06;4108879;28;20265;-58
2022/03/28 01:20:37;;;;;;;3.95;3.65;;;;;;;7.43;63.51;99451.88;4111542;28;20297;-58
2022/03/28 01:22:39;;;;;;;3.33;3.13;;;;;;;7.40;63.80;99440.56;4108972;28;20235;-58
2022/03/28 01:24:41;;;;;;;4.47;4.07;;;;;;;7.38;63.91;99450.81;4107743;28;20229;-56
2022/03/28 01:26:43;;;;;;;3.45;3.15;;;;;;;7.36;63.07;99450.22;4108695;28;20198;-56
2022/03/28 01:28:45;;;;;;;4.05;3.75;;;;;;;7.34;63.78;99441.38;4095785;28;20574;-57
2022/03/28 01:30:47;;;;;;;3.03;2.83;;;;;;;7.35;63.23;99438.47;4090546;28;20231;-57
2022/03/28 01:32:51;;;;;;;3.33;2.75;;;;;;;7.35;63.24;99448.53;4108679;28;20230;-56
2022/03/28 01:34:53;;;;;;;6.80;3.65;;;;;;;7.32;63.29;99438.03;4109924;28;20238;-58
2022/03/28 01:36:55;;;;;;;3.22;3.03;;;;;;;7.26;63.70;99433.41;4098251;28;20278;-58
2022/03/28 01:38:57;;;;;;;3.58;3.28;;;;;;;7.21;63.96;99430.50;4093465;28;20203;-57
2022/03/28 01:40:58;;;;;;;3.20;3.00;;;;;;;7.14;63.83;99429.63;4078788;29;20205;-57
2022/03/28 01:43:00;;;;;;;2.88;2.67;;;;;;;7.04;64.47;99429.19;4097062;28;20219;-57
2022/03/28 01:45:02;;;;;;;2.65;2.45;;;;;;;6.96;64.03;99432.94;4094349;28;20636;-58
2022/03/28 01:47:04;;;;;;;3.90;3.33;;;;;;;6.95;64.23;99430.44;4093528;28;20650;-56
2022/03/28 01:49:06;;;;;;;3.70;3.40;;;;;;;6.91;64.28;99427.28;4094336;28;20663;-57
2022/03/28 01:51:07;;;;;;;3.20;2.88;;;;;;;6.94;64.34;99423.28;4089330;28;20364;-58
2022/03/28 01:53:09;;;;;;;3.65;3.35;;;;;;;6.95;64.10;99422.28;4088770;28;20261;-58
2022/03/28 01:55:11;;;;;;;8.63;3.85;;;;;;;6.94;64.28;99417.84;4092973;28;20216;-58
2022/03/28 01:57:13;;;;;;;3.47;3.28;;;;;;;6.92;64.22;99414.50;4093850;28;20262;-58
2022/03/28 01:59:15;;;;;;;3.10;2.80;;;;;;;6.89;64.34;99412.19;4109971;28;20202;-58
2022/03/28 02:01:17;;;;;;;2.65;2.47;;;;;;;6.87;64.03;99411.53;4109993;28;20222;-57
2022/03/28 02:03:18;;;;;;;2.67;2.47;;;;;;;6.90;65.22;99411.16;4095397;28;20680;-57
2022/03/28 02:05:20;;;;;;;3.20;2.40;;;;;;;6.86;64.80;99418.03;4091772;28;20267;-57
2022/03/28 02:07:22;;;;;;;3.45;3.15;;;;;;;6.84;64.94;99411.97;4106700;28;20374;-57
2022/03/28 02:09:24;;;;;;;3.55;3.25;;;;;;;6.79;64.54;99409.00;4090762;28;20724;-57
2022/03/28 02:11:25;;;;;;;3.08;2.78;;;;;;;6.78;64.36;99407.34;4108343;28;20419;-56
2022/03/28 02:13:27;;;;;;;3.80;2.95;;;;;;;6.80;64.70;99413.41;4107551;28;20271;-57
2022/03/28 02:15:29;;;;;;;3.35;3.05;;;;;;;6.78;64.49;99412.78;4109793;28;20317;-57
2022/03/28 02:17:31;;;;;;;6.00;3.13;;;;;;;6.74;64.55;99411.50;4094407;28;20250;-58
2022/03/28 02:19:33;;;;;;;3.05;2.85;;;;;;;6.71;64.03;99412.78;4107109;28;20215;-57
2022/03/28 02:21:34;;;;;;;3.58;3.25;;;;;;;6.74;64.59;99408.78;4090392;28;20315;-57
2022/03/28 02:23:36;;;;;;;3.10;2.90;;;;;;;6.73;64.51;99404.38;4107866;28;20208;-58
2022/03/28 02:25:39;;;;;;;3.70;3.40;;;;;;;6.74;64.29;99406.06;4085939;28;20215;-57
2022/03/28 02:27:41;;;;;;;4.05;3.75;;;;;;;6.72;64.56;99414.44;4104117;28;20277;-58
2022/03/28 02:29:43;;;;;;;3.88;3.15;;;;;;;6.71;63.98;99407.34;4107340;28;20199;-58
2022/03/28 02:31:45;;;;;;;3.65;3.35;;;;;;;6.71;64.22;99406.47;4108629;28;20703;-56
2022/03/28 02:33:47;;;;;;;4.35;3.90;;;;;;;6.62;64.31;99407.72;4093713;28;20250;-57
2022/03/28 02:35:49;;;;;;;3.80;3.60;;;;;;;6.58;64.52;99406.44;4091874;28;20287;-58
2022/03/28 02:37:50;;;;;;;4.45;3.53;;;;;;;6.51;64.21;99400.13;4110210;28;20236;-58
2022/03/28 02:39:53;;;;;;;3.70;3.40;;;;;;;6.50;64.56;99398.44;4091543;28;20239;-58
2022/03/28 02:41:55;;;;;;;5.72;3.47;;;;;;;6.47;64.47;99393.41;4090639;28;20235;-56
2022/03/28 02:43:59;;;;;;;3.97;3.17;;;;;;;6.49;64.35;99385.91;4093055;28;20676;-58
2022/03/28 02:46:00;;;;;;;3.40;2.92;;;;;;;6.46;64.63;99391.72;4107182;28;20213;-57
2022/03/28 02:48:04;;;;;;;4.28;3.97;;;;;;;6.42;64.68;99394.03;4095043;28;20208;-56
2022/03/28 02:50:06;;;;;;;5.25;3.20;;;;;;;6.34;64.78;99388.75;4107386;28;20724;-58
2022/03/28 02:52:08;;;;;;;3.42;3.13;;;;;;;6.29;64.60;99391.22;4094382;28;20620;-57
2022/03/28 02:54:09;;;;;;;3.70;3.42;;;;;;;6.26;65.22;99391.66;4092123;28;20214;-58
2022/03/28 02:56:11;;;;;;;2.80;2.63;;;;;;;6.20;65.30;99386.16;4087509;28;20234;-58
2022/03/28 02:58:13;;;;;;;2.90;2.70;;;;;;;6.21;65.01;99382.41;4088182;28;20271;-58
2022/03/28 03:00:15;;;;;;;3.83;3.47;;;;;;;6.14;65.03;99376.94;4106516;28;20230;-58
2022/03/28 03:02:16;;;;;;;2.92;2.72;;;;;;;6.11;65.28;99369.22;4088752;28;20251;-58
2022/03/28 03:04:18;;;;;;;4.82;3.75;;;;;;;6.03;65.16;99373.97;4105701;28;20211;-58
2022/03/28 03:06:20;;;;;;;3.72;3.40;;;;;;;6.01;65.40;99371.44;4092413;28;21133;-58
2022/03/28 03:08:21;;;;;;;2.63;2.42;;;;;;;5.98;66.03;99366.44;4091087;28;20226;-57
2022/03/28 03:10:23;;;;;;;3.70;3.40;;;;;;;5.91;65.92;99361.97;4092462;28;20694;-58
2022/03/28 03:12:28;;;;;;;4.07;3.70;;;;;;;5.93;65.86;99362.59;4108193;28;20237;-58
2022/03/28 03:14:30;;;;;;;4.00;3.70;;;;;;;5.92;65.87;99361.78;4107936;28;20215;-57
2022/03/28 03:16:32;;;;;;;3.15;2.95;;;;;;;5.93;65.88;99362.59;4086699;28;21474;-57
2022/03/28 03:18:33;;;;;;;3.22;2.95;;;;;;;5.95;65.82;99368.69;4088219;28;20241;-59
2022/03/28 03:20:35;;;;;;;3.30;3.00;;;;;;;5.92;65.97;99366.38;4089477;28;20673;-59
2022/03/28 03:22:37;;;;;;;2.97;2.70;;;;;;;5.89;66.03;99358.63;4104868;28;20250;-58
2022/03/28 03:24:39;;;;;;;3.13;2.90;;;;;;;5.82;66.06;99357.75;4088863;28;20212;-58
2022/03/28 03:26:41;;;;;;;4.50;3.80;;;;;;;5.86;65.87;99362.59;4108523;28;20221;-58
2022/03/28 03:28:42;;;;;;;3.95;3.65;;;;;;;5.88;65.97;99365.94;4107613;28;20755;-57
2022/03/28 03:30:44;;;;;;;4.60;3.90;;;;;;;5.84;65.64;99355.66;4088897;28;20271;-58
2022/03/28 03:32:46;;;;;;;3.75;3.28;;;;;;;5.82;65.64;99360.47;4090435;28;20235;-58
2022/03/28 03:34:48;;;;;;;3.88;3.45;;;;;;;5.78;65.80;99354.56;4090531;28;20302;-58
2022/03/28 03:36:50;;;;;;;3.33;3.07;;;;;;;5.78;65.75;99353.72;4107480;28;20302;-58
2022/03/28 03:38:51;;;;;;;3.95;3.47;;;;;;;5.71;65.87;99358.28;4106149;28;20731;-58
2022/03/28 03:40:53;;;;;;;3.35;3.15;;;;;;;5.70;65.64;99362.03;4107220;28;20254;-58
2022/03/28 03:42:55;;;;;;;4.13;3.78;;;;;;;5.64;65.94;99358.19;4108672;28;20253;-59
2022/03/28 03:44:58;;;;;;;2.95;2.47;;;;;;;5.60;65.74;99356.09;4109401;28;20210;-59
2022/03/28 03:46:59;;;;;;;3.53;3.22;;;;;;;5.60;65.81;99356.94;4110557;28;20203;-59
2022/03/28 03:49:02;;;;;;;3.28;3.08;;;;;;;5.57;66.08;99361.94;4109781;28;20214;-59
2022/03/28 03:51:04;;;;;;;3.08;2.83;;;;;;;5.54;66.03;99355.00;4087938;28;20234;-58
2022/03/28 03:53:06;;;;;;;5.15;3.38;;;;;;;5.58;65.74;99358.16;4088906;28;21110;-59
2022/03/28 03:55:08;;;;;;;3.90;3.60;;;;;;;5.61;65.57;99355.03;4108251;28;20211;-58
2022/03/28 03:57:09;;;;;;;2.95;2.75;;;;;;;5.59;65.69;99357.97;4089140;28;20214;-59
2022/03/28 03:59:11;;;;;;;3.95;3.65;;;;;;;5.53;65.69;99358.78;4102852;28;20226;-58
2022/03/28 04:01:13;;;;;;;4.13;3.75;;;;;;;5.47;65.83;99361.41;4088820;28;20231;-58
2022/03/28 04:03:15;;;;;;;3.50;3.22;;;;;;;5.43;65.86;99365.59;4088131;28;20899;-58
2022/03/28 04:05:17;;;;;;;11.85;3.78;;;;;;;5.40;66.14;99366.81;4104406;28;20298;-57
2022/03/28 04:07:19;;;;;;;4.63;4.22;;;;;;;5.30;66.06;99362.75;4092792;28;20226;-58
2022/03/28 04:09:20;;;;;;;6.43;3.65;;;;;;;5.23;66.29;99359.16;4092478;28;20258;-57
2022/03/28 04:11:22;;;;;;;3.67;3.33;;;;;;;5.15;66.37;99359.28;4091412;28;20286;-58
2022/03/28 04:13:24;;;;;;;4.85;3.60;;;;;;;5.16;66.09;99363.69;4104956;28;21122;-58
2022/03/28 04:15:26;;;;;;;3.80;3.50;;;;;;;5.17;66.57;99365.34;4105030;28;20237;-57
2022/03/28 04:17:29;;;;;;;3.53;3.22;;;;;;;5.18;66.06;99358.88;4090038;28;20258;-57
2022/03/28 04:19:31;;;;;;;4.38;3.97;;;;;;;5.17;66.25;99366.19;4088536;28;20218;-58
2022/03/28 04:21:32;;;;;;;4.15;3.85;;;;;;;5.16;66.42;99358.25;4090150;28;20263;-58
2022/03/28 04:23:34;;;;;;;4.72;3.65;;;;;;;5.20;66.24;99362.25;4103880;28;20739;-56
2022/03/28 04:25:36;;;;;;;4.88;3.70;;;;;;;5.15;66.42;99353.88;4106657;28;20303;-58
2022/03/28 04:27:38;;;;;;;4.60;4.20;;;;;;;5.18;66.04;99356.19;4106523;28;20246;-58
2022/03/28 04:29:40;;;;;;;4.43;4.03;;;;;;;5.21;66.15;99353.06;4107010;28;20292;-58
2022/03/28 04:31:42;;;;;;;3.92;3.63;;;;;;;5.17;66.37;99357.22;4087081;28;20242;-58
2022/03/28 04:33:43;;;;;;;3.15;2.95;;;;;;;5.10;66.67;99348.19;4105818;28;20222;-59
2022/03/28 04:35:46;;;;;;;4.43;4.00;;;;;;;5.05;66.77;99358.78;4107705;28;20329;-58
2022/03/28 04:37:47;;;;;;;4.30;3.95;;;;;;;5.01;66.60;99357.47;4088459;28;20247;-57
2022/03/28 04:39:49;;;;;;;8.35;3.40;;;;;;;4.99;66.63;99351.41;4091210;28;20207;-58
2022/03/28 04:41:51;;;;;;;4.65;4.25;;;;;;;4.96;66.61;99357.25;4089323;28;20310;-58
2022/03/28 04:43:52;;;;;;;5.68;5.20;;;;;;;4.97;66.29;99363.47;4107434;28;20540;-58
2022/03/28 04:45:54;;;;;;;3.17;2.90;;;;;;;4.97;66.42;99358.91;4092535;28;20208;-58
2022/03/28 04:47:57;;;;;;;3.58;3.28;;;;;;;4.97;66.43;99358.06;4088641;28;20211;-58
2022/03/28 04:49:59;;;;;;;4.47;4.07;;;;;;;4.93;66.58;99362.22;4086171;28;20215;-59
2022/03/28 04:52:00;;;;;;;3.20;2.90;;;;;;;4.91;66.10;99359.69;4103993;28;20261;-58
2022/03/28 04:54:02;;;;;;;3.13;2.92;;;;;;;4.91;66.19;99356.97;4091135;28;20211;-58
2022/03/28 04:56:04;;;;;;;3.78;3.47;;;;;;;4.88;66.11;99360.06;4074408;28;20212;-58
2022/03/28 04:58:06;;;;;;;5.28;4.53;;;;;;;4.93;66.09;99357.59;4088702;28;20682;-58
2022/03/28 05:00:09;;;;;;;3.88;3.58;;;;;;;4.91;66.46;99365.09;4091305;28;20203;-59
2022/03/28 05:02:11;;;;;;;3.08;2.78;;;;;;;4.92;66.17;99350.50;4091267;28;20267;-58
2022/03/28 05:04:13;;;;;;;3.95;3.63;;;;;;;4.94;66.28;99355.75;4094326;28;20200;-59
2022/03/28 05:06:15;;;;;;;3.10;2.90;;;;;;;4.88;66.20;99354.63;4093705;28;20237;-58
2022/03/28 05:08:17;;;;;;;4.85;4.45;;;;;;;4.82;66.03;99355.44;4090967;28;20207;-60
2022/03/28 05:10:19;;;;;;;4.45;4.05;;;;;;;4.76;66.93;99355.34;4107866;28;20207;-60
2022/03/28 05:12:22;;;;;;;5.32;4.78;;;;;;;4.67;67.00;99351.91;4086963;28;20318;-62
2022/03/28 05:14:24;;;;;;;4.50;4.10;;;;;;;4.68;66.66;99348.16;4088340;28;20211;-60
2022/03/28 05:16:26;;;;;;;5.80;5.30;;;;;;;4.67;66.77;99351.91;4102836;28;20207;-59
2022/03/28 05:18:28;;;;;;;5.80;4.55;;;;;;;4.64;66.84;99352.31;4089737;28;20223;-59
2022/03/28 05:20:30;;;;;;;5.78;5.15;;;;;;;4.63;67.13;99355.19;4091328;28;20215;-59
2022/03/28 05:22:32;;;;;;;4.55;4.15;;;;;;;4.64;66.83;99346.88;4106533;28;20242;-59
2022/03/28 05:24:34;;;;;;;4.47;4.10;;;;;;;4.64;66.69;99346.88;4105841;28;20202;-58
2022/03/28 05:26:36;;;;;;;3.83;3.42;;;;;;;4.68;66.78;99345.44;4090607;28;20208;-58
2022/03/28 05:28:37;;;;;;;4.20;3.88;;;;;;;4.61;67.20;99349.97;4106388;28;20203;-59
2022/03/28 05:30:39;;;;;;;3.50;3.30;;;;;;;4.60;66.94;99353.72;4094456;28;20858;-58
2022/03/28 05:32:43;;;;;;;4.85;4.45;;;;;;;4.60;67.01;99351.00;4112907;28;20238;-57
2022/03/28 05:34:45;;;;;;;5.57;5.07;;;;;;;4.58;67.35;99347.66;4110703;28;20210;-58
2022/03/28 05:36:47;;;;;;;3.90;3.55;;;;;;;4.58;67.42;99347.66;4095613;28;20223;-58
2022/03/28 05:38:49;;;;;;;5.10;4.55;;;;;;;4.58;67.54;99341.38;4096130;28;20271;-60
2022/03/28 05:40:50;;;;;;;4.38;4.05;;;;;;;4.58;67.39;99352.22;4096068;28;20259;-60
2022/03/28 05:42:53;;;;;;;4.20;3.80;;;;;;;4.58;67.41;99347.66;4096567;28;20325;-59
2022/03/28 05:44:54;;;;;;;6.07;4.40;;;;;;;4.63;67.22;99356.06;4096529;28;20231;-59
2022/03/28 05:46:56;;;;;;;6.35;5.22;;;;;;;4.63;67.60;99355.19;4110113;28;20290;-57
2022/03/28 05:48:58;;;;;;;7.55;5.00;;;;;;;4.63;67.17;99349.78;4112357;28;20244;-57
2022/03/28 05:51:01;;;;;;;6.35;4.60;;;;;;;4.63;67.45;99350.63;4095121;28;20213;-60
2022/03/28 05:53:02;;;;;;;8.23;5.80;;;;;;;4.66;67.61;99349.41;4110347;28;20203;-60
2022/03/28 05:55:05;;;;;;;6.50;6.10;;;;;;;4.69;67.65;99352.59;4110803;28;20218;-60
2022/03/28 05:57:07;;;;;;;5.00;4.28;;;;;;;4.66;67.71;99350.22;4112217;28;21105;-60
2022/03/28 05:59:09;;;;;;;5.18;4.50;;;;;;;4.71;67.82;99347.78;4080459;29;20232;-58
2022/03/28 06:01:10;;;;;;;6.03;5.07;;;;;;;4.78;68.12;99346.00;4096746;28;20216;-58
2022/03/28 06:03:12;;;;;;;6.00;5.50;;;;;;;5.01;69.19;99346.63;4112607;28;20211;-58
2022/03/28 06:05:37;;;;;;;4.38;3.97;;;;;;;5.32;69.68;99352.53;4109934;28;20204;-59
2022/03/28 06:07:40;;;;;;;5.07;4.60;;;;;;;5.33;68.42;99348.78;4109337;28;20207;-57
2022/03/28 06:09:41;;;;;;;6.10;5.50;;;;;;;5.41;68.19;99349.50;4094931;28;20269;-58
2022/03/28 06:11:43;;;;;;;4.22;3.88;;;;;;;5.47;68.33;99339.72;4094913;28;20274;-58
2022/03/28 06:13:48;;;;;;;4.10;3.75;;;;;;;5.59;68.21;99338.13;4111676;28;20206;-58
2022/03/28 06:15:49;;;;;;;4.57;4.20;;;;;;;6.06;68.25;99343.66;4078337;29;20248;-58
2022/03/28 06:17:53;;;;;;;3.35;3.15;;;;;;;6.39;67.20;99350.94;4096695;28;20207;-53
2022/03/28 06:20:02;;;;;;;4.63;4.22;;;;;;;6.34;66.85;99355.28;4095987;28;20622;-60
2022/03/28 06:22:04;;;;;;;4.95;4.18;;;;;;;6.65;67.04;99358.34;4097048;28;20239;-60
2022/03/28 06:24:09;;;;;;;5.38;4.85;;;;;;;6.78;66.76;99361.09;4112273;28;20252;-60
2022/03/28 06:26:11;;;;;;;5.93;5.25;;;;;;;6.71;65.62;99352.09;4093916;28;20215;-57
2022/03/28 06:28:13;;;;;;;6.63;5.95;;;;;;;7.08;65.59;99351.56;4112201;28;20672;-59
2022/03/28 06:30:15;;;;;;;5.10;4.60;;;;;;;7.56;64.42;99353.03;4111023;28;20766;-57
2022/03/28 06:32:20;;;;;;;4.68;4.28;;;;;;;8.21;63.79;99348.31;4110836;28;20306;-57
2022/03/28 06:34:22;;;;;;;4.72;4.32;;;;;;;8.33;64.10;99352.06;4111554;28;20229;-56
2022/03/28 06:36:23;;;;;;;4.50;3.67;;;;;;;8.44;62.33;99342.34;4095467;28;20207;-58
2022/03/28 06:38:25;;;;;;;13.02;6.15;;;;;;;9.00;61.92;99348.75;4112765;28;20245;-57
2022/03/28 06:40:27;;;;;;;4.43;4.03;;;;;;;9.23;61.83;99349.03;4095980;28;20215;-56
2022/03/28 06:42:32;;;;;;;4.43;3.97;;;;;;;9.94;59.92;99348.41;4109932;28;20235;-57
2022/03/28 06:44:34;;;;;;;5.05;4.35;;;;;;;10.40;58.54;99353.41;4095563;28;20207;-57
2022/03/28 06:46:36;;;;;;;4.43;4.03;;;;;;;10.40;58.60;99356.13;4099194;28;20258;-56
2022/03/28 06:48:39;;;;;;;9.00;4.43;;;;;;;10.51;58.30;99352.63;4097402;28;20199;-58
2022/03/28 06:50:40;;;;;;;5.05;4.57;;;;;;;11.04;56.99;99358.03;4093622;28;20243;-56
2022/03/28 06:52:42;;;;;;;4.80;3.92;;;;;;;10.84;56.72;99349.25;4111877;28;20230;-55
2022/03/28 06:54:44;;;;;;;8.82;5.32;;;;;;;10.35;57.71;99356.00;4094839;28;20214;-57
2022/03/28 06:56:46;;;;;;;3.05;2.75;;;;;;;11.23;57.00;99340.47;4097972;28;20772;-57
2022/03/28 06:58:48;;;;;;;3.95;3.58;;;;;;;11.74;54.96;99348.94;4110308;28;20326;-57
2022/03/28 07:00:50;;;;;;;3.85;3.55;;;;;;;12.14;54.79;99343.56;4094246;28;20645;-57
2022/03/28 07:02:52;;;;;;;4.38;3.97;;;;;;;12.99;51.77;99343.53;4096816;28;20290;-57
2022/03/28 07:04:54;;;;;;;4.00;3.50;;;;;;;12.72;51.98;99347.03;4095003;28;20219;-57
2022/03/28 07:06:56;;;;;;;4.22;3.83;;;;;;;12.68;52.92;99346.69;4093936;28;20246;-56
2022/03/28 07:08:57;;;;;;;4.20;3.80;;;;;;;12.64;53.11;99345.50;4088399;28;20240;-58
2022/03/28 07:10:59;;;;;;;12.60;5.30;;;;;;;12.37;53.07;99341.63;4087673;28;20242;-58
2022/03/28 07:13:01;;;;;;;4.85;4.45;;;;;;;13.14;52.42;99338.31;4097330;28;20235;-58
2022/03/28 07:15:04;;;;;;;4.28;3.88;;;;;;;13.72;50.84;99330.53;4111000;28;20233;-57
2022/03/28 07:17:06;;;;;;;3.47;3.17;;;;;;;14.32;49.59;99336.16;4094904;28;20207;-56
2022/03/28 07:19:08;;;;;;;4.35;3.95;;;;;;;13.85;49.29;99332.97;4107304;28;20304;-56
2022/03/28 07:21:10;;;;;;;4.47;4.07;;;;;;;14.11;49.62;99332.25;4110838;28;20266;-55
2022/03/28 07:23:13;;;;;;;4.50;4.20;;;;;;;14.15;49.88;99330.66;4093151;28;20208;-57
2022/03/28 07:25:15;;;;;;;8.82;3.63;;;;;;;13.71;51.30;99326.09;4107680;28;20203;-56
2022/03/28 07:27:17;;;;;;;4.38;3.88;;;;;;;14.13;50.63;99330.09;4109605;28;20226;-56
2022/03/28 07:29:20;;;;;;;5.03;4.63;;;;;;;13.77;51.95;99330.59;4094536;28;20258;-56
2022/03/28 07:31:21;;;;;;;4.57;4.13;;;;;;;13.44;52.63;99329.78;4095958;28;20273;-56
2022/03/28 07:33:24;;;;;;;4.20;3.45;;;;;;;13.65;52.33;99332.63;4078009;29;20617;-56
2022/03/28 07:35:25;;;;;;;4.22;3.65;;;;;;;14.06;51.38;99339.59;4092570;28;20259;-56
2022/03/28 07:37:27;;;;;;;4.65;4.10;;;;;;;13.49;52.28;99330.69;4094463;28;20279;-55
2022/03/28 07:39:30;;;;;;;4.93;4.45;;;;;;;12.94;53.24;99332.38;4108974;28;20215;-56
2022/03/28 07:41:31;;;;;;;4.28;3.88;;;;;;;13.24;52.45;99329.41;4096436;28;20709;-56
2022/03/28 07:43:33;;;;;;;4.95;4.53;;;;;;;13.01;53.05;99330.34;4097660;28;20207;-56
2022/03/28 07:45:36;;;;;;;13.73;4.30;;;;;;;14.49;50.35;99324.00;4111709;28;20274;-54
2022/03/28 07:47:38;;;;;;;5.13;4.55;;;;;;;13.54;52.58;99316.19;4082025;29;20596;-55
2022/03/28 07:49:40;;;;;;;4.57;4.15;;;;;;;13.87;52.28;99311.53;4097258;28;20334;-54
2022/03/28 07:51:42;;;;;;;4.60;4.20;;;;;;;13.94;52.72;99314.09;4080799;29;20228;-55
2022/03/28 07:53:44;;;;;;;3.83;3.53;;;;;;;15.11;49.67;99310.69;4096613;28;20676;-55
2022/03/28 07:55:46;;;;;;;5.05;4.35;;;;;;;15.66;48.93;99314.00;4095090;28;20203;-56
2022/03/28 07:57:47;;;;;;;4.93;4.43;;;;;;;14.09;52.82;99306.88;4111065;28;20253;-58
2022/03/28 07:59:49;;;;;;;4.78;4.38;;;;;;;13.73;54.18;99312.97;4109731;28;20277;-58
2022/03/28 08:02:11;;;;;;;5.53;4.20;;;;;;;14.47;52.88;99312.41;4106578;28;20684;-57
2022/03/28 08:04:13;;;;;;;6.00;5.40;;;;;;;14.58;52.82;99311.44;4108999;28;20210;-56
2022/03/28 08:06:16;;;;;;;4.95;4.53;;;;;;;15.00;52.67;99315.28;4095777;28;20211;-56
2022/03/28 08:08:17;;;;;;;4.80;4.38;;;;;;;15.71;52.10;99316.81;4094504;28;20261;-56
2022/03/28 08:10:20;;;;;;;5.30;4.50;;;;;;;15.37;50.45;99305.19;4110701;28;20224;-55
2022/03/28 08:12:22;;;;;;;4.53;4.13;;;;;;;14.86;52.22;99305.75;4098141;28;20231;-54
2022/03/28 08:14:24;;;;;;;5.93;5.03;;;;;;;14.65;52.46;99306.59;4093404;28;20829;-55
2022/03/28 08:16:26;;;;;;;5.60;5.10;;;;;;;14.43;53.07;99307.69;4109185;28;20641;-55
2022/03/28 08:18:28;;;;;;;4.55;4.20;;;;;;;15.40;52.70;99299.16;4095240;28;20387;-54
2022/03/28 08:20:30;;;;;;;5.13;3.88;;;;;;;16.33;48.90;99299.31;4111340;28;20944;-56
2022/03/28 08:22:32;;;;;;;4.22;3.83;;;;;;;15.63;51.32;99286.97;4092290;28;20298;-55
2022/03/28 08:24:34;;;;;;;5.05;4.60;;;;;;;16.17;50.09;99294.78;4092865;28;20234;-55
2022/03/28 08:26:36;;;;;;;4.68;4.28;;;;;;;17.28;47.85;99285.84;4109169;28;20712;-55
2022/03/28 08:28:39;;;;;;;5.43;4.93;;;;;;;16.83;48.75;99282.97;4111536;28;20203;-55
2022/03/28 08:30:41;;;;;;;4.50;4.10;;;;;;;17.20;47.89;99289.97;4110719;28;20218;-54
2022/03/28 08:32:43;;;;;;;4.65;4.20;;;;;;;17.43;47.21;99288.66;4111038;28;20230;-54
2022/03/28 08:34:48;;;;;;;5.03;4.45;;;;;;;18.25;45.97;99280.88;4108863;28;20225;-55
2022/03/28 08:36:50;;;;;;;4.50;3.65;;;;;;;18.51;45.18;99279.72;4110429;28;20238;-58
2022/03/28 08:38:52;;;;;;;4.15;3.70;;;;;;;18.40;46.15;99275.31;4109135;28;20245;-54
2022/03/28 08:40:54;;;;;;;4.13;3.63;;;;;;;18.09;46.57;99287.53;4092920;28;20290;-55
2022/03/28 08:42:56;;;;;;;4.90;4.40;;;;;;;17.21;49.01;99277.00;4110297;28;20211;-55
2022/03/28 08:44:58;;;;;;;4.68;3.45;;;;;;;17.56;48.68;99282.59;4110094;28;20665;-55
2022/03/28 08:47:04;;;;;;;6.78;4.05;;;;;;;16.98;49.69;99277.50;4109072;28;20312;-55
2022/03/28 08:49:06;;;;;;;4.38;3.95;;;;;;;17.90;48.26;99272.59;4092967;28;20242;-55
2022/03/28 08:51:09;;;;;;;4.68;3.92;;;;;;;17.18;50.01;99275.59;4110001;28;20238;-54
2022/03/28 08:53:12;;;;;;;4.05;3.45;;;;;;;18.43;47.69;99271.97;4093743;28;20231;-54
2022/03/28 08:55:14;;;;;;;4.65;4.15;;;;;;;19.36;45.22;99266.25;4110216;28;20258;-54
2022/03/28 08:57:16;;;;;;;4.53;4.13;;;;;;;18.77;46.13;99272.97;4094764;28;20230;-54
2022/03/28 08:59:18;;;;;;;3.25;2.95;;;;;;;19.10;46.24;99273.03;4107940;28;20255;-53
2022/03/28 09:01:21;;;;;;;4.35;3.95;;;;;;;18.28;47.82;99266.44;4086138;28;20715;-54
2022/03/28 09:03:39;;;;;;;3.75;3.30;;;;;;;18.35;47.88;99267.00;4109721;28;20572;-53
2022/03/28 09:05:47;;;;;;;3.45;3.05;;;;;;;18.74;46.82;99267.97;4095590;28;20203;-53
2022/03/28 09:07:49;;;;;;;4.85;3.38;;;;;;;19.45;45.37;99260.91;4097055;28;20657;-53
2022/03/28 09:09:59;;;;;;;3.88;3.53;;;;;;;20.03;44.12;99260.66;4083098;29;20230;-54
2022/03/28 09:12:08;;;;;;;3.78;3.47;;;;;;;19.77;44.93;99261.19;4095020;28;20274;-53
2022/03/28 09:14:32;;;;;;;3.88;2.97;;;;;;;19.99;44.53;99253.19;4097019;28;20254;-53
2022/03/28 09:16:34;;;;;;;4.45;3.35;;;;;;;19.76;44.99;99253.97;4096136;28;20203;-53
2022/03/28 09:18:36;;;;;;;3.92;3.50;;;;;;;19.22;47.51;99247.72;4095630;28;20685;-53
2022/03/28 09:20:38;;;;;;;4.30;3.90;;;;;;;18.84;47.01;99246.56;4098450;28;20238;-53
2022/03/28 09:22:41;;;;;;;3.90;3.35;;;;;;;19.63;45.95;99237.97;4111313;28;20697;-54
2022/03/28 09:24:44;;;;;;;6.40;3.38;;;;;;;20.01;44.94;99237.06;4113007;28;20249;-54
2022/03/28 09:26:46;;;;;;;4.35;3.97;;;;;;;19.76;45.23;99240.06;4096905;28;20211;-54
2022/03/28 09:29:00;;;;;;;3.90;3.28;;;;;;;19.53;46.00;99240.84;4111042;28;20856;-54
2022/03/28 09:31:19;;;;;;;3.50;3.17;;;;;;;20.15;44.95;99241.66;4110830;28;20206;-54
2022/03/28 09:33:22;;;;;;;3.78;3.15;;;;;;;20.59;44.15;99238.66;4095205;28;20225;-54
2022/03/28 09:35:26;;;;;;;3.70;3.40;;;;;;;20.34;44.64;99233.38;4112306;28;20238;-56
2022/03/28 09:37:28;;;;;;;3.63;3.33;;;;;;;20.06;45.43;99228.72;4101066;28;20211;-55
2022/03/28 09:39:32;;;;;;;3.72;3.33;;;;;;;20.42;44.86;99236.34;4096562;28;20231;-55
2022/03/28 09:41:34;;;;;;;4.30;3.90;;;;;;;19.99;45.33;99230.97;4095233;28;20227;-55